Time;durP1;ratioP1;P1;durP2;ratioP2;P2;SDS_P1;SDS_P2;PMS_P1;PMS_P2;Temp;Humidity;BMP_temperature;BMP_pressure;BME280_temperature;BME280_humidity;BME280_pressure;Samples;Min_cycle;Max_cycle;Signal;HPM_P1;HPM_P2
2022/07/29 00:01:20;;;;;;;4.70;3.73;;;;;;;18.88;100.00;95743.16;5012957;28;25096;-74
2022/07/29 00:03:47;;;;;;;5.78;3.53;;;;;;;18.85;100.00;95736.41;5018248;28;25004;-73
2022/07/29 00:06:14;;;;;;;3.83;3.30;;;;;;;18.89;100.00;95718.56;5012535;28;24433;-73
2022/07/29 00:08:40;;;;;;;5.18;3.28;;;;;;;18.72;100.00;95726.22;5012031;28;24799;-74
2022/07/29 00:11:07;;;;;;;10.07;3.85;;;;;;;18.67;100.00;95714.53;5013079;28;24498;-73
2022/07/29 00:13:35;;;;;;;5.30;3.90;;;;;;;18.78;100.00;95719.59;5015508;28;24444;-74
2022/07/29 00:16:01;;;;;;;3.70;3.33;;;;;;;18.84;100.00;95719.00;5012705;28;24495;-74
2022/07/29 00:18:27;;;;;;;6.32;3.63;;;;;;;18.75;100.00;95720.69;5012278;28;24444;-73
2022/07/29 00:20:54;;;;;;;5.68;3.30;;;;;;;18.83;100.00;95725.22;5012507;28;24432;-74
2022/07/29 00:23:21;;;;;;;5.88;3.83;;;;;;;18.81;100.00;95732.41;5012616;28;24440;-75
2022/07/29 00:25:47;;;;;;;4.70;3.80;;;;;;;18.79;100.00;95718.59;5012317;28;24588;-75
2022/07/29 00:28:14;;;;;;;5.53;3.88;;;;;;;18.66;100.00;95724.19;5016617;28;24805;-75
2022/07/29 00:30:42;;;;;;;5.07;3.70;;;;;;;18.57;100.00;95720.63;5013346;28;24456;-75
2022/07/29 00:33:09;;;;;;;4.95;3.45;;;;;;;18.62;100.00;95715.78;5011271;28;24447;-75
2022/07/29 00:35:43;;;;;;;4.72;3.80;;;;;;;18.55;100.00;95712.09;5012224;28;24443;-75
2022/07/29 00:38:10;;;;;;;4.70;3.72;;;;;;;18.57;100.00;95701.44;5011758;28;24436;-75
2022/07/29 00:40:36;;;;;;;6.70;4.07;;;;;;;18.65;100.00;95700.72;5011857;28;24982;-75
2022/07/29 00:43:02;;;;;;;6.18;3.92;;;;;;;18.63;100.00;95700.88;5006463;22;24500;-74
2022/07/29 00:45:29;;;;;;;4.68;3.75;;;;;;;18.75;100.00;95696.25;4986234;28;24838;-74
2022/07/29 00:47:57;;;;;;;5.78;3.42;;;;;;;18.80;100.00;95688.75;4996053;28;24524;-74
2022/07/29 00:50:24;;;;;;;8.25;4.05;;;;;;;18.83;100.00;95685.84;4998033;28;24841;-74
2022/07/29 00:52:52;;;;;;;4.95;3.47;;;;;;;18.86;100.00;95686.38;4982753;28;24437;-75
2022/07/29 00:55:19;;;;;;;5.28;3.50;;;;;;;18.89;100.00;95684.44;4969675;28;24449;-75
2022/07/29 00:57:46;;;;;;;6.70;4.20;;;;;;;18.72;100.00;95683.44;4979021;28;24440;-74
2022/07/29 01:00:18;;;;;;;5.95;4.05;;;;;;;18.76;100.00;95690.03;4977150;28;24863;-75
2022/07/29 01:02:44;;;;;;;5.00;3.70;;;;;;;18.74;100.00;95682.31;4977983;28;25039;-75
2022/07/29 01:05:13;;;;;;;4.43;3.63;;;;;;;18.63;100.00;95683.31;4969133;28;24499;-75
2022/07/29 01:07:40;;;;;;;7.13;3.97;;;;;;;18.51;100.00;95684.53;4975297;28;24464;-74
2022/07/29 01:10:10;;;;;;;5.23;3.80;;;;;;;18.51;100.00;95681.91;4978683;28;24453;-74
2022/07/29 01:12:38;;;;;;;6.13;3.63;;;;;;;18.47;100.00;95685.78;4977772;28;24525;-74
2022/07/29 01:15:07;;;;;;;5.18;3.90;;;;;;;18.57;100.00;95680.47;4968896;28;25174;-75
2022/07/29 01:17:39;;;;;;;5.15;3.80;;;;;;;18.63;100.00;95672.84;4971661;28;24991;-74
2022/07/29 01:20:11;;;;;;;4.25;3.55;;;;;;;18.74;100.00;95679.72;4980128;28;24441;-75
2022/07/29 01:23:02;;;;;;;9.70;4.13;;;;;;;18.77;100.00;95670.72;4969058;28;24537;-74
2022/07/29 01:25:50;;;;;;;4.88;3.65;;;;;;;18.80;100.00;95670.41;4968085;28;24493;-74
2022/07/29 01:28:39;;;;;;;6.32;4.00;;;;;;;18.58;100.00;95680.34;4963379;28;24437;-74
2022/07/29 01:31:08;;;;;;;4.68;3.30;;;;;;;18.54;100.00;95670.25;4974302;28;24471;-74
2022/07/29 01:33:50;;;;;;;5.97;3.92;;;;;;;18.50;100.00;95668.91;4966358;28;24508;-74
2022/07/29 01:36:21;;;;;;;5.65;3.85;;;;;;;18.46;100.00;95671.00;4980602;28;24448;-74
2022/07/29 01:38:59;;;;;;;6.80;3.75;;;;;;;18.47;100.00;95666.59;4971790;28;24982;-74
2022/07/29 01:41:30;;;;;;;5.65;3.95;;;;;;;18.40;100.00;95665.53;4971769;28;24617;-74
2022/07/29 01:44:02;;;;;;;5.22;4.10;;;;;;;18.35;100.00;95664.19;4968403;28;25064;-74
2022/07/29 01:46:34;;;;;;;8.45;3.72;;;;;;;18.35;100.00;95656.31;4970687;28;24492;-74
2022/07/29 01:49:06;;;;;;;5.88;3.38;;;;;;;18.46;100.00;95657.88;4970961;28;24811;-74
2022/07/29 01:51:40;;;;;;;3.57;3.27;;;;;;;18.34;100.00;95654.66;4981717;28;24472;-74
2022/07/29 01:54:11;;;;;;;6.35;4.20;;;;;;;18.21;100.00;95659.44;4973571;28;24442;-74
2022/07/29 01:56:39;;;;;;;5.30;3.70;;;;;;;18.10;100.00;95655.22;4973651;28;24442;-74
2022/07/29 01:59:09;;;;;;;4.57;4.00;;;;;;;18.12;100.00;95655.88;4973586;28;24437;-74
2022/07/29 02:01:36;;;;;;;5.57;3.88;;;;;;;18.07;100.00;95665.97;4975806;28;24468;-74
2022/07/29 02:04:06;;;;;;;5.43;3.90;;;;;;;18.10;100.00;95654.38;4974013;28;24445;-74
2022/07/29 02:06:34;;;;;;;4.40;3.53;;;;;;;18.04;100.00;95663.63;4975597;28;24848;-74
2022/07/29 02:09:01;;;;;;;4.30;3.25;;;;;;;18.17;100.00;95655.47;4972505;28;24800;-74
2022/07/29 02:11:31;;;;;;;6.20;3.60;;;;;;;18.22;100.00;95663.69;4982079;28;24556;-74
2022/07/29 02:14:00;;;;;;;5.07;3.50;;;;;;;18.28;100.00;95657.88;4961390;28;24449;-74
2022/07/29 02:16:30;;;;;;;6.60;3.35;;;;;;;18.31;100.00;95654.13;4976305;28;24440;-74
2022/07/29 02:18:58;;;;;;;4.10;3.20;;;;;;;18.34;100.00;95656.44;4967017;28;24429;-75
2022/07/29 02:21:28;;;;;;;4.75;3.28;;;;;;;18.29;100.00;95661.31;4981032;28;24487;-75
2022/07/29 02:23:56;;;;;;;4.50;3.30;;;;;;;18.35;100.00;95663.34;4971276;28;24872;-74
2022/07/29 02:26:26;;;;;;;4.40;3.25;;;;;;;18.47;100.00;95659.56;4970255;28;24453;-74
2022/07/29 02:28:56;;;;;;;4.87;3.37;;;;;;;18.53;100.00;95655.50;4972483;28;24442;-74
2022/07/29 02:31:26;;;;;;;4.05;3.50;;;;;;;18.43;100.00;95650.34;4972527;28;25837;-74
2022/07/29 02:33:55;;;;;;;3.97;3.10;;;;;;;18.38;100.00;95653.38;4970313;28;25030;-74
2022/07/29 02:36:23;;;;;;;5.67;3.33;;;;;;;18.42;100.00;95659.16;4966843;28;24437;-74
2022/07/29 02:38:50;;;;;;;4.50;3.40;;;;;;;18.47;100.00;95653.50;4971352;28;24537;-74
2022/07/29 02:41:19;;;;;;;7.75;3.15;;;;;;;18.51;100.00;95650.44;4970200;28;24437;-75
2022/07/29 02:43:48;;;;;;;3.83;3.38;;;;;;;18.49;100.00;95651.53;4960188;28;24466;-75
2022/07/29 02:46:21;;;;;;;4.65;3.20;;;;;;;18.34;100.00;95646.78;4981553;28;24440;-74
2022/07/29 02:48:54;;;;;;;3.58;3.20;;;;;;;18.43;100.00;95652.13;4969571;28;24531;-75
2022/07/29 02:51:28;;;;;;;3.97;3.42;;;;;;;18.21;100.00;95645.50;4960962;28;24462;-74
2022/07/29 02:53:57;;;;;;;3.67;3.17;;;;;;;18.34;100.00;95643.34;4967447;28;24445;-74
2022/07/29 02:56:27;;;;;;;4.00;2.92;;;;;;;18.28;100.00;95647.41;4968056;28;24449;-74
2022/07/29 02:58:57;;;;;;;7.15;3.20;;;;;;;18.31;100.00;95646.25;4972079;28;25049;-75
2022/07/29 03:01:27;;;;;;;4.57;3.50;;;;;;;18.31;100.00;95647.06;4975018;28;24425;-74
2022/07/29 03:03:55;;;;;;;3.25;2.80;;;;;;;18.37;100.00;95653.53;4968358;28;24488;-74
2022/07/29 03:06:27;;;;;;;3.67;3.10;;;;;;;18.31;100.00;95648.88;4971334;28;24441;-74
2022/07/29 03:08:54;;;;;;;3.63;3.28;;;;;;;18.21;100.00;95650.75;4972917;28;25274;-75
2022/07/29 03:11:21;;;;;;;3.58;3.00;;;;;;;18.20;100.00;95654.31;4966294;28;24454;-74
2022/07/29 03:13:48;;;;;;;3.90;2.90;;;;;;;18.12;100.00;95653.25;4971583;28;24442;-74
2022/07/29 03:16:16;;;;;;;4.47;3.30;;;;;;;18.11;100.00;95656.84;4967304;28;24436;-74
2022/07/29 03:18:43;;;;;;;4.53;3.30;;;;;;;18.04;100.00;95650.53;4972362;28;24464;-75
2022/07/29 03:21:09;;;;;;;4.13;3.40;;;;;;;17.92;100.00;95656.13;4964002;28;24861;-75
2022/07/29 03:23:37;;;;;;;3.95;3.13;;;;;;;17.85;100.00;95654.06;4967188;28;24454;-74
2022/07/29 03:26:03;;;;;;;4.68;3.45;;;;;;;17.86;100.00;95652.25;4974800;28;24529;-75
2022/07/29 03:28:30;;;;;;;6.65;3.67;;;;;;;17.88;100.00;95648.53;4973642;28;24442;-74
2022/07/29 03:30:57;;;;;;;4.18;3.55;;;;;;;17.84;100.00;95644.56;4968996;28;24515;-75
2022/07/29 03:33:23;;;;;;;3.40;3.07;;;;;;;17.92;100.00;95654.31;4973943;28;24434;-75
2022/07/29 03:35:49;;;;;;;5.40;3.35;;;;;;;17.82;100.00;95649.09;4974967;28;24794;-74
2022/07/29 03:38:16;;;;;;;3.78;3.47;;;;;;;17.87;100.00;95643.44;4970565;28;24441;-74
2022/07/29 03:40:49;;;;;;;4.30;3.10;;;;;;;17.81;100.00;95644.03;4971750;28;24481;-74
2022/07/29 03:43:18;;;;;;;7.13;3.58;;;;;;;17.66;100.00;95643.63;4969715;28;24998;-74
2022/07/29 03:45:48;;;;;;;7.05;3.60;;;;;;;17.65;100.00;95645.44;4977043;28;24500;-74
2022/07/29 03:48:18;;;;;;;3.20;2.90;;;;;;;17.62;100.00;95650.13;4967714;28;24482;-74
2022/07/29 03:50:45;;;;;;;5.20;3.05;;;;;;;17.59;100.00;95650.41;4973708;28;24791;-74
2022/07/29 03:53:12;;;;;;;3.60;3.28;;;;;;;17.63;100.00;95655.22;4974035;28;24465;-75
2022/07/29 03:55:47;;;;;;;8.70;3.05;;;;;;;17.67;100.00;95650.50;4978665;28;24424;-74
2022/07/29 03:58:15;;;;;;;3.80;3.28;;;;;;;17.63;100.00;95652.59;4972850;28;24504;-75
2022/07/29 04:00:43;;;;;;;3.25;2.95;;;;;;;17.58;100.00;95646.13;4970104;28;24437;-74
2022/07/29 04:03:10;;;;;;;3.95;3.33;;;;;;;17.53;100.00;95646.53;4970896;28;24445;-75
2022/07/29 04:05:37;;;;;;;3.60;3.05;;;;;;;17.55;100.00;95652.47;4975662;28;24440;-76
2022/07/29 04:08:04;;;;;;;3.38;3.08;;;;;;;17.60;100.00;95652.03;4965018;28;24456;-76
2022/07/29 04:10:30;;;;;;;3.67;3.33;;;;;;;17.69;100.00;95660.84;4968777;28;24445;-76
2022/07/29 04:12:58;;;;;;;4.78;3.30;;;;;;;17.65;100.00;95653.28;4968086;28;24836;-76
2022/07/29 04:15:25;;;;;;;3.50;3.20;;;;;;;17.67;100.00;95659.19;4968076;28;24824;-76
2022/07/29 04:17:52;;;;;;;3.30;3.00;;;;;;;17.74;100.00;95661.25;4974093;28;24465;-76
2022/07/29 04:20:19;;;;;;;3.80;2.92;;;;;;;17.77;100.00;95656.59;4984912;28;24444;-76
2022/07/29 04:22:45;;;;;;;5.80;3.38;;;;;;;17.81;100.00;95665.81;4964614;28;24520;-76
2022/07/29 04:25:11;;;;;;;5.18;3.60;;;;;;;17.84;100.00;95665.53;4973836;28;24488;-76
2022/07/29 04:27:59;;;;;;;4.93;3.35;;;;;;;17.63;100.00;95663.06;4976602;28;24449;-76
2022/07/29 04:30:26;;;;;;;6.00;3.72;;;;;;;17.40;100.00;95662.56;4978924;28;24432;-76
2022/07/29 04:32:52;;;;;;;3.72;3.42;;;;;;;17.37;100.00;95657.63;4976942;28;25002;-76
2022/07/29 04:35:19;;;;;;;6.57;3.80;;;;;;;17.44;100.00;95655.25;4978663;28;24441;-76
2022/07/29 04:37:46;;;;;;;4.63;3.42;;;;;;;17.53;100.00;95664.88;4975475;28;24508;-76
2022/07/29 04:40:12;;;;;;;4.20;3.72;;;;;;;17.54;100.00;95663.94;4980344;28;24441;-76
2022/07/29 04:42:39;;;;;;;4.70;3.65;;;;;;;17.59;100.00;95661.69;4975506;28;24557;-76
2022/07/29 04:45:07;;;;;;;4.18;3.50;;;;;;;17.64;100.00;95664.72;4978498;28;25026;-76
2022/07/29 04:47:34;;;;;;;4.00;3.30;;;;;;;17.72;100.00;95661.38;4978274;28;24437;-78
2022/07/29 04:50:01;;;;;;;6.13;3.72;;;;;;;17.86;100.00;95670.59;4981143;28;24441;-78
2022/07/29 04:52:28;;;;;;;4.18;3.60;;;;;;;17.94;100.00;95667.25;4973164;28;24548;-78
2022/07/29 04:54:54;;;;;;;5.90;3.83;;;;;;;18.02;100.00;95659.50;4979074;28;24521;-77
2022/07/29 04:57:21;;;;;;;7.70;3.92;;;;;;;18.25;100.00;95667.84;4992483;28;24985;-78
2022/07/29 04:59:48;;;;;;;4.32;3.78;;;;;;;18.16;100.00;95664.28;4982410;28;24922;-78
2022/07/29 05:02:14;;;;;;;3.50;3.20;;;;;;;18.08;100.00;95672.03;4973137;28;24437;-77
2022/07/29 05:04:42;;;;;;;3.60;3.30;;;;;;;18.03;100.00;95666.41;4978081;28;24437;-83
2022/07/29 05:07:09;;;;;;;3.95;3.45;;;;;;;18.07;100.00;95658.13;4980353;28;24544;-83
2022/07/29 05:09:35;;;;;;;4.18;3.42;;;;;;;18.16;100.00;95680.00;4979424;28;24480;-83
2022/07/29 05:12:02;;;;;;;3.90;3.50;;;;;;;18.20;100.00;95675.28;4980034;28;24495;-84
2022/07/29 05:14:28;;;;;;;6.22;3.70;;;;;;;18.33;100.00;95671.38;4982796;28;24441;-83
2022/07/29 05:16:56;;;;;;;4.82;3.55;;;;;;;18.34;100.00;95680.06;4976272;28;24444;-83
2022/07/29 05:19:23;;;;;;;4.45;3.67;;;;;;;18.34;100.00;95672.19;4976065;28;24425;-83
2022/07/29 05:21:51;;;;;;;5.03;3.70;;;;;;;18.30;100.00;95678.69;4977945;28;24441;-83
2022/07/29 05:24:17;;;;;;;4.95;3.33;;;;;;;18.44;100.00;95693.13;4984059;28;25023;-83
2022/07/29 05:26:44;;;;;;;3.88;3.45;;;;;;;18.46;100.00;95685.91;4978129;28;24445;-83
2022/07/29 05:29:11;;;;;;;3.70;3.30;;;;;;;18.31;100.00;95685.56;4984590;28;24440;-83
2022/07/29 05:31:37;;;;;;;4.10;3.70;;;;;;;18.28;100.00;95688.50;4977380;28;24501;-82
2022/07/29 05:34:04;;;;;;;5.13;3.57;;;;;;;18.33;100.00;95691.53;4979859;28;24817;-83
2022/07/29 05:36:30;;;;;;;5.43;3.15;;;;;;;18.38;100.00;95681.41;4976046;28;24441;-79
2022/07/29 05:38:58;;;;;;;4.55;3.65;;;;;;;18.43;100.00;95689.69;4977305;28;24844;-78
2022/07/29 05:41:24;;;;;;;4.85;3.75;;;;;;;18.59;100.00;95689.84;4967738;28;24449;-79
2022/07/29 05:43:51;;;;;;;3.80;3.40;;;;;;;18.75;100.00;95685.78;4977384;28;24529;-78
2022/07/29 05:46:17;;;;;;;5.00;4.00;;;;;;;18.74;100.00;95686.75;4975094;28;24441;-78
2022/07/29 05:48:44;;;;;;;4.53;3.60;;;;;;;18.69;100.00;95691.56;4978241;28;24445;-68
2022/07/29 05:51:10;;;;;;;5.80;3.70;;;;;;;18.73;100.00;95687.75;4974500;28;24518;-74
2022/07/29 05:53:37;;;;;;;4.77;4.17;;;;;;;18.70;100.00;95680.94;4968163;28;25066;-77
2022/07/29 05:56:06;;;;;;;6.10;4.03;;;;;;;18.78;100.00;95694.16;4977992;28;24820;-70
2022/07/29 05:58:32;;;;;;;6.50;4.38;;;;;;;18.87;100.00;95695.06;4974163;28;24452;-73
2022/07/29 06:01:00;;;;;;;4.45;3.92;;;;;;;18.89;100.00;95694.94;4975876;28;24441;-71
2022/07/29 06:03:26;;;;;;;4.32;3.50;;;;;;;18.84;100.00;95703.25;4964845;28;24875;-70
2022/07/29 06:05:53;;;;;;;6.22;3.90;;;;;;;18.82;100.00;95703.41;4974403;28;24452;-70
2022/07/29 06:08:19;;;;;;;5.47;4.18;;;;;;;18.83;100.00;95704.22;4969061;28;24477;-72
2022/07/29 06:10:46;;;;;;;6.72;4.28;;;;;;;18.80;100.00;95707.13;4972970;28;24433;-71
2022/07/29 06:13:15;;;;;;;4.78;3.67;;;;;;;18.85;100.00;95710.16;4972868;28;25081;-71
2022/07/29 06:15:42;;;;;;;6.40;4.05;;;;;;;18.75;100.00;95717.25;4973478;28;24796;-71
2022/07/29 06:18:09;;;;;;;4.37;3.97;;;;;;;18.75;100.00;95707.59;4972853;28;24574;-71
2022/07/29 06:20:36;;;;;;;5.65;4.40;;;;;;;18.63;100.00;95719.22;4973854;28;24552;-71
2022/07/29 06:23:04;;;;;;;4.65;3.92;;;;;;;18.67;100.00;95714.53;4972655;28;24530;-71
2022/07/29 06:25:32;;;;;;;5.77;4.27;;;;;;;18.80;100.00;95720.25;4962262;28;24497;-71
2022/07/29 06:27:58;;;;;;;5.47;3.97;;;;;;;18.80;100.00;95721.09;4969930;28;24448;-71
2022/07/29 06:30:26;;;;;;;4.27;3.53;;;;;;;18.84;100.00;95722.44;4969645;28;24800;-72
2022/07/29 06:32:53;;;;;;;5.70;4.13;;;;;;;18.90;100.00;95726.25;4972393;28;24466;-71
2022/07/29 06:35:19;;;;;;;4.82;4.28;;;;;;;19.07;100.00;95722.03;4970991;28;24445;-71
2022/07/29 06:37:46;;;;;;;5.72;4.20;;;;;;;19.43;100.00;95722.84;4966517;28;24437;-71
2022/07/29 06:42:56;;;;;;;6.28;4.72;;;;;;;19.42;100.00;95726.41;4970143;28;24453;-71
2022/07/29 06:45:24;;;;;;;4.63;4.07;;;;;;;19.56;100.00;95731.13;4968262;28;24500;-72
2022/07/29 06:47:51;;;;;;;5.75;4.30;;;;;;;19.47;100.00;95728.59;4963394;28;24444;-73
2022/07/29 06:50:18;;;;;;;4.82;3.90;;;;;;;19.59;100.00;95717.69;4967392;28;24437;-73
2022/07/29 06:52:44;;;;;;;4.18;3.53;;;;;;;19.80;100.00;95734.94;4971668;28;24477;-73
2022/07/29 06:55:11;;;;;;;7.30;4.38;;;;;;;19.99;100.00;95729.50;4973126;28;24441;-73
2022/07/29 06:57:37;;;;;;;4.90;3.80;;;;;;;20.25;100.00;95734.72;4967294;28;24441;-72
2022/07/29 07:00:05;;;;;;;4.85;3.78;;;;;;;20.34;100.00;95735.59;4974498;28;24444;-71
2022/07/29 07:02:31;;;;;;;5.20;3.70;;;;;;;20.57;100.00;95741.13;4967100;28;24534;-72
2022/07/29 07:04:59;;;;;;;6.10;3.85;;;;;;;20.27;100.00;95738.00;4977268;28;24452;-71
2022/07/29 07:10:10;;;;;;;6.23;3.80;;;;;;;20.50;100.00;95745.38;4966530;28;24475;-71
2022/07/29 07:12:52;;;;;;;6.00;3.90;;;;;;;20.65;100.00;95745.59;4967921;28;24449;-72
2022/07/29 07:15:21;;;;;;;5.00;4.00;;;;;;;20.75;100.00;95746.31;4966466;28;25005;-72
2022/07/29 07:17:48;;;;;;;6.72;4.05;;;;;;;20.72;100.00;95754.50;4974296;28;24446;-72
2022/07/29 07:23:00;;;;;;;6.15;4.10;;;;;;;21.41;100.00;95748.13;4972079;28;24444;-71
2022/07/29 07:25:26;;;;;;;4.68;3.55;;;;;;;21.60;99.78;95748.78;4974396;28;24484;-72
2022/07/29 07:28:08;;;;;;;5.90;3.60;;;;;;;22.17;99.72;95756.66;4975321;28;25680;-72
2022/07/29 07:30:34;;;;;;;7.43;4.22;;;;;;;22.04;93.80;95748.41;4972954;28;24445;-72
2022/07/29 07:33:01;;;;;;;8.40;4.25;;;;;;;22.02;95.17;95750.38;4987791;28;24474;-73
2022/07/29 07:35:29;;;;;;;6.88;4.10;;;;;;;21.89;93.77;95749.09;5007995;28;24495;-74
2022/07/29 07:37:56;;;;;;;5.85;3.70;;;;;;;22.14;92.68;95746.47;5017605;28;24809;-73
2022/07/29 07:40:23;;;;;;;5.10;3.20;;;;;;;22.36;91.19;95747.53;5015360;28;24436;-73
2022/07/29 07:42:50;;;;;;;9.43;3.50;;;;;;;22.44;89.49;95753.63;5014502;28;24861;-72
2022/07/29 07:45:16;;;;;;;7.85;3.90;;;;;;;22.42;86.73;95747.69;5014274;28;24424;-71
2022/07/29 07:47:43;;;;;;;4.30;3.40;;;;;;;22.69;85.83;95743.81;5013464;28;24440;-72
2022/07/29 07:50:12;;;;;;;5.80;3.77;;;;;;;22.99;84.23;95741.38;5010238;28;25082;-70
2022/07/29 07:52:49;;;;;;;5.28;3.42;;;;;;;23.53;80.22;95745.78;5016893;28;24522;-70
2022/07/29 07:55:16;;;;;;;4.83;3.20;;;;;;;23.50;74.57;95748.78;5012914;28;24516;-74
2022/07/29 07:57:42;;;;;;;5.20;2.83;;;;;;;23.99;77.10;95751.03;5014910;28;24852;-71
2022/07/29 08:00:10;;;;;;;5.03;2.67;;;;;;;24.50;71.62;95749.38;5018662;28;24439;-72
2022/07/29 08:02:36;;;;;;;4.78;2.80;;;;;;;24.65;69.29;95752.00;5012746;28;24429;-73
2022/07/29 08:05:03;;;;;;;6.20;3.42;;;;;;;24.56;67.82;95753.13;5019786;28;24439;-72
2022/07/29 08:07:30;;;;;;;7.33;3.40;;;;;;;24.31;68.20;95748.06;5017007;28;24439;-73
2022/07/29 08:09:57;;;;;;;4.33;2.63;;;;;;;24.67;67.81;95749.19;5008903;28;24520;-73
2022/07/29 08:12:24;;;;;;;7.22;3.47;;;;;;;24.62;66.69;95747.06;5013012;28;24464;-73
2022/07/29 08:14:50;;;;;;;4.00;2.78;;;;;;;24.91;68.72;95745.41;5010806;28;24439;-73
2022/07/29 08:17:17;;;;;;;6.97;2.88;;;;;;;25.00;67.23;95749.59;5013491;28;24447;-73
2022/07/29 08:19:43;;;;;;;4.05;2.85;;;;;;;24.74;65.91;95745.63;5015977;28;24436;-73
2022/07/29 08:22:09;;;;;;;4.68;3.08;;;;;;;25.06;66.82;95748.84;5014474;28;24443;-73
2022/07/29 08:24:52;;;;;;;7.32;3.20;;;;;;;25.12;64.00;95752.63;5013802;28;24845;-72
2022/07/29 08:27:20;;;;;;;4.57;3.33;;;;;;;25.63;65.04;95748.03;5012299;28;24793;-73
2022/07/29 08:29:46;;;;;;;4.35;3.10;;;;;;;25.15;62.59;95752.25;5010344;28;24456;-73
2022/07/29 08:32:13;;;;;;;10.73;2.97;;;;;;;24.99;61.94;95751.44;5015970;28;24466;-73
2022/07/29 08:34:39;;;;;;;4.80;2.70;;;;;;;25.53;63.02;95753.66;5011010;28;24466;-73
2022/07/29 08:37:06;;;;;;;4.78;3.20;;;;;;;25.70;60.15;95748.91;5012025;28;24981;-73
2022/07/29 08:39:32;;;;;;;6.70;2.80;;;;;;;25.85;60.72;95746.22;5005142;28;24463;-72
2022/07/29 08:41:59;;;;;;;4.20;3.10;;;;;;;25.57;60.78;95740.81;5013387;28;24846;-73
2022/07/29 08:44:26;;;;;;;6.63;2.97;;;;;;;24.98;62.92;95746.31;5016218;28;24440;-73
2022/07/29 08:46:53;;;;;;;4.72;2.95;;;;;;;25.01;62.32;95751.22;5004181;28;24447;-73
2022/07/29 08:49:20;;;;;;;6.53;3.17;;;;;;;25.01;61.39;95745.94;5006723;28;24444;-69
2022/07/29 08:51:46;;;;;;;3.57;2.70;;;;;;;25.15;60.57;95753.06;5008061;28;24441;-76
2022/07/29 08:54:18;;;;;;;8.32;3.08;;;;;;;24.87;61.48;95752.91;5005508;28;24462;-77
2022/07/29 08:56:45;;;;;;;5.68;2.88;;;;;;;25.07;62.02;95751.31;5008900;28;24437;-75
2022/07/29 08:59:13;;;;;;;3.95;2.78;;;;;;;25.30;59.38;95745.88;5017125;28;24491;-74
2022/07/29 09:01:42;;;;;;;4.90;3.15;;;;;;;25.28;59.61;95753.19;5006578;28;24437;-75
2022/07/29 09:04:12;;;;;;;6.10;3.03;;;;;;;25.95;60.11;95748.53;5009985;28;24436;-75
2022/07/29 09:06:44;;;;;;;4.13;2.78;;;;;;;26.58;55.72;95744.06;5012936;28;25012;-76
2022/07/29 09:09:11;;;;;;;4.03;2.80;;;;;;;26.49;56.40;95740.75;5005529;28;24428;-75
2022/07/29 09:11:38;;;;;;;8.18;3.00;;;;;;;27.14;55.06;95741.25;5013304;28;24447;-76
2022/07/29 09:14:05;;;;;;;9.00;3.00;;;;;;;27.18;52.99;95739.00;5018558;28;24456;-75
2022/07/29 09:16:49;;;;;;;5.43;3.07;;;;;;;27.01;52.31;95736.69;5015021;28;24810;-75
2022/07/29 09:19:24;;;;;;;4.70;3.22;;;;;;;27.09;53.15;95735.69;5009789;28;24502;-76
2022/07/29 09:22:00;;;;;;;6.22;3.53;;;;;;;26.86;53.58;95743.19;5016194;28;24886;-76
2022/07/29 09:24:41;;;;;;;7.78;2.97;;;;;;;26.72;52.52;95734.31;5016357;28;24425;-74
2022/07/29 09:27:19;;;;;;;9.48;3.22;;;;;;;26.40;53.13;95735.75;5012877;28;24817;-75
2022/07/29 09:29:46;;;;;;;4.30;3.00;;;;;;;26.20;53.44;95741.75;5008023;28;24499;-76
2022/07/29 09:32:14;;;;;;;3.95;2.97;;;;;;;25.79;52.68;95733.72;5010663;28;24447;-76
2022/07/29 09:34:40;;;;;;;6.27;2.67;;;;;;;25.70;53.67;95734.84;5004260;28;24464;-76
2022/07/29 09:37:07;;;;;;;4.25;2.55;;;;;;;25.21;53.63;95732.91;5013899;28;24432;-76
2022/07/29 09:39:36;;;;;;;4.18;2.80;;;;;;;24.90;56.05;95727.88;5013703;28;24511;-76
2022/07/29 09:42:04;;;;;;;4.07;2.70;;;;;;;24.44;55.24;95733.41;5015098;28;24456;-75
2022/07/29 09:44:42;;;;;;;6.38;2.88;;;;;;;24.34;55.12;95731.81;5004208;28;24436;-76
2022/07/29 09:47:09;;;;;;;4.80;2.70;;;;;;;24.21;55.85;95731.63;5016135;28;24442;-77
2022/07/29 09:49:51;;;;;;;8.30;3.10;;;;;;;24.07;57.56;95727.16;5013865;28;24795;-77
2022/07/29 09:52:18;;;;;;;4.47;2.40;;;;;;;24.00;57.75;95728.91;5008226;28;24977;-78
2022/07/29 09:54:45;;;;;;;4.68;2.58;;;;;;;23.99;57.41;95737.81;5008319;28;24435;-76
2022/07/29 09:57:28;;;;;;;3.50;2.63;;;;;;;24.02;57.77;95748.03;5016295;28;25011;-76
2022/07/29 09:59:59;;;;;;;11.23;3.00;;;;;;;24.08;58.10;95750.78;5008540;28;24440;-75
2022/07/29 10:02:31;;;;;;;8.30;3.17;;;;;;;24.34;60.59;95762.78;5007564;28;24466;-76
2022/07/29 10:05:00;;;;;;;4.75;3.55;;;;;;;24.32;62.99;95756.81;5011868;28;25048;-75
2022/07/29 10:07:27;;;;;;;6.50;3.67;;;;;;;24.02;65.73;95750.69;5012138;28;24431;-77
2022/07/29 10:09:55;;;;;;;7.40;2.90;;;;;;;23.48;64.43;95758.72;5003686;28;24448;-75
2022/07/29 10:12:22;;;;;;;3.90;2.65;;;;;;;22.96;64.98;95744.34;5007624;28;24472;-75
2022/07/29 10:14:49;;;;;;;4.07;2.60;;;;;;;23.05;62.03;95743.28;5009771;28;24491;-75
2022/07/29 10:17:17;;;;;;;3.45;2.42;;;;;;;22.81;61.92;95757.44;5015102;28;24444;-75
2022/07/29 10:19:43;;;;;;;2.65;1.92;;;;;;;22.71;62.38;95752.34;5010883;28;24996;-75
2022/07/29 10:22:11;;;;;;;4.17;2.67;;;;;;;22.59;63.58;95752.91;5015193;28;24989;-74
2022/07/29 10:24:39;;;;;;;3.17;2.45;;;;;;;22.41;67.35;95759.22;5009694;28;25051;-75
2022/07/29 10:27:07;;;;;;;4.90;3.10;;;;;;;22.20;71.75;95764.22;5015851;28;24436;-73
2022/07/29 10:29:33;;;;;;;4.20;2.73;;;;;;;21.93;75.52;95760.13;5013560;28;24439;-74
2022/07/29 10:32:17;;;;;;;5.53;3.22;;;;;;;21.97;72.36;95761.44;5008788;28;24545;-74
2022/07/29 10:35:02;;;;;;;3.42;2.80;;;;;;;22.15;70.90;95761.28;5010325;28;24464;-74
2022/07/29 10:37:46;;;;;;;3.10;2.45;;;;;;;22.17;69.10;95754.00;5004810;28;21312;-74
2022/07/29 10:43:18;;;;;;;6.07;2.83;;;;;;;21.68;77.88;95751.41;5011916;28;24643;-74
2022/07/29 10:45:46;;;;;;;3.70;2.58;;;;;;;21.64;77.78;95750.09;5011488;28;25039;-75
2022/07/29 10:48:12;;;;;;;6.93;2.58;;;;;;;21.62;77.50;95754.72;5014540;28;24443;-74
2022/07/29 10:50:56;;;;;;;7.13;2.38;;;;;;;21.72;76.27;95758.00;5011561;28;24808;-75
2022/07/29 10:53:25;;;;;;;6.20;2.60;;;;;;;21.76;76.71;95769.84;5015200;28;25027;-75
2022/07/29 10:55:53;;;;;;;3.53;2.13;;;;;;;21.86;75.42;95767.88;5006991;28;24511;-75
2022/07/29 10:58:20;;;;;;;4.87;2.23;;;;;;;21.79;74.82;95774.78;5014455;28;24494;-75
2022/07/29 11:00:49;;;;;;;2.47;1.90;;;;;;;21.88;73.88;95765.91;5007669;28;24444;-75
2022/07/29 11:03:47;;;;;;;4.10;2.20;;;;;;;21.89;73.45;95769.38;5014037;28;24458;-73
2022/07/29 11:06:14;;;;;;;4.95;2.25;;;;;;;21.81;73.73;95775.47;4997653;28;24686;-73
2022/07/29 11:08:42;;;;;;;2.35;1.80;;;;;;;22.08;69.10;95770.81;5009715;28;24842;-73
2022/07/29 11:11:40;;;;;;;2.42;1.52;;;;;;;22.17;68.89;95769.84;5008319;28;24795;-73
2022/07/29 11:14:07;;;;;;;1.50;1.40;;;;;;;22.15;68.13;95763.91;5015944;28;24543;-73
2022/07/29 11:16:59;;;;;;;2.35;1.40;;;;;;;22.26;66.28;95760.94;5012826;28;24802;-74
2022/07/29 11:19:25;;;;;;;2.33;1.45;;;;;;;22.29;67.47;95757.97;5022159;28;24451;-74
2022/07/29 11:21:52;;;;;;;3.75;1.90;;;;;;;22.49;67.28;95762.84;5018234;28;24695;-72
2022/07/29 11:24:23;;;;;;;5.60;2.05;;;;;;;22.80;65.43;95757.59;5022119;28;24596;-74
2022/07/29 11:27:13;;;;;;;3.10;2.28;;;;;;;23.12;65.71;95754.00;5018808;28;25004;-74
2022/07/29 11:29:48;;;;;;;9.20;2.85;;;;;;;23.16;67.49;95745.53;5015597;28;24442;-73
2022/07/29 11:32:18;;;;;;;10.77;3.03;;;;;;;23.29;69.42;95746.81;5015586;28;24518;-74
2022/07/29 11:34:44;;;;;;;6.95;2.60;;;;;;;23.23;69.61;95748.31;5022407;28;25055;-73
2022/07/29 11:37:22;;;;;;;5.60;2.42;;;;;;;23.17;70.01;95746.34;5006253;28;24803;-73
2022/07/29 11:40:13;;;;;;;3.70;2.50;;;;;;;23.26;69.19;95749.78;5014878;28;24825;-73
2022/07/29 11:42:47;;;;;;;3.63;2.22;;;;;;;23.08;67.91;95748.25;5018625;28;24436;-74
2022/07/29 11:45:23;;;;;;;5.97;2.38;;;;;;;23.11;68.49;95755.00;5015244;28;24432;-74
2022/07/29 11:47:53;;;;;;;4.28;2.45;;;;;;;23.54;66.47;95747.44;5004497;28;24926;-72
2022/07/29 11:50:30;;;;;;;6.18;2.47;;;;;;;23.51;66.00;95753.91;5009195;28;24495;-74